Time;durP1;ratioP1;P1;durP2;ratioP2;P2;SDS_P1;SDS_P2;PMS_P1;PMS_P2;Temp;Humidity;BMP_temperature;BMP_pressure;BME280_temperature;BME280_humidity;BME280_pressure;Samples;Min_cycle;Max_cycle;Signal;HPM_P1;HPM_P2
2023/07/14 00:01:05;;;;;;;;;12.80;12.80;;;;;22.08;100.00;98845.66;7694880;22;98794;-60
2023/07/14 01:23:43;;;;;;;;;11.25;11.00;;;;;21.54;100.00;98862.56;7716240;22;99231;-61
2023/07/14 01:49:38;;;;;;;;;11.00;9.00;;;;;21.24;100.00;98871.97;7712399;22;98728;-61
2023/07/14 02:07:19;;;;;;;;;9.75;9.75;;;;;21.03;100.00;98906.97;7700472;22;99754;-61
2023/07/14 02:10:51;;;;;;;;;10.33;9.33;;;;;21.02;100.00;98913.56;7716948;22;96914;31
2023/07/14 03:36:08;;;;;;;;;11.00;10.00;;;;;20.41;100.00;98964.47;7673332;22;98868;-60
2023/07/14 03:42:50;;;;;;;;;10.00;9.40;;;;;19.94;100.00;98885.63;7748554;22;98835;-60
2023/07/14 03:45:54;;;;;;;;;11.60;11.00;;;;;20.02;100.00;98890.50;7739086;22;97906;-61
2023/07/14 03:48:57;;;;;;;;;13.60;12.00;;;;;20.74;100.00;98991.91;7772041;22;96877;-61
2023/07/14 04:29:31;;;;;;;;;13.00;12.00;;;;;21.92;100.00;98998.75;7718817;22;98771;-60
2023/07/14 04:36:19;;;;;;;;;13.20;12.40;;;;;22.21;100.00;99006.91;7715113;22;98793;-62
2023/07/14 05:09:10;;;;;;;;;14.00;13.00;;;;;22.83;100.00;99010.44;7615497;22;96235;-61
2023/07/14 05:12:13;;;;;;;;;15.00;14.00;;;;;23.03;100.00;99026.63;7596413;23;96251;-62
2023/07/14 05:15:17;;;;;;;;;14.40;13.00;;;;;23.22;100.00;99016.41;7621455;22;96305;-62
2023/07/14 05:18:20;;;;;;;;;12.00;11.00;;;;;23.33;100.00;99019.78;7622125;22;96354;-62
2023/07/14 05:21:23;;;;;;;;;12.00;11.00;;;;;23.54;100.00;99014.78;7615530;22;96396;-62
2023/07/14 05:24:28;;;;;;;;;14.00;13.00;;;;;23.67;100.00;99016.72;7639156;22;96285;-62
2023/07/14 05:27:32;;;;;;;;;11.40;10.40;;;;;23.82;100.00;99010.94;7608950;22;96657;-61
2023/07/14 05:30:35;;;;;;;;;13.80;12.40;;;;;23.96;100.00;99016.44;7633692;22;96309;-61
2023/07/14 05:33:38;;;;;;;;;11.80;10.00;;;;;24.08;100.00;99016.75;7659664;22;96288;-61
2023/07/14 05:36:41;;;;;;;;;10.40;10.00;;;;;24.14;100.00;99018.28;7659119;22;96233;-61
2023/07/14 05:39:46;;;;;;;;;11.25;9.25;;;;;24.12;100.00;99015.84;7632651;22;98566;-61
2023/07/14 05:42:50;;;;;;;;;12.00;11.00;;;;;24.02;100.00;99023.47;7658132;22;96137;-62
2023/07/14 05:45:53;;;;;;;;;9.60;9.60;;;;;23.92;100.00;99021.75;7631545;22;98303;-61
2023/07/14 05:48:56;;;;;;;;;9.25;9.00;;;;;23.70;100.00;99032.66;7632489;22;96321;-61
2023/07/14 05:51:59;;;;;;;;;10.40;10.00;;;;;23.68;100.00;99032.94;7658131;22;96276;-62
2023/07/14 05:55:05;;;;;;;;;10.80;9.80;;;;;23.70;100.00;99036.19;7659074;22;96204;-62
2023/07/14 05:58:08;;;;;;;;;10.00;9.75;;;;;23.73;100.00;99043.88;7655527;22;96500;-61
2023/07/14 06:01:12;;;;;;;;;11.00;11.00;;;;;23.74;100.00;99030.91;7631590;22;96648;-61
2023/07/14 06:04:16;;;;;;;;;11.40;11.00;;;;;23.67;100.00;99025.81;7629163;22;98400;-62
2023/07/14 06:07:19;;;;;;;;;13.00;12.00;;;;;23.88;100.00;99037.25;7630269;22;96336;-61
2023/07/14 06:10:23;;;;;;;;;12.00;11.80;;;;;24.03;100.00;99033.38;7629639;22;98408;-62
2023/07/14 06:13:28;;;;;;;;;10.60;10.00;;;;;24.12;100.00;99040.63;7655846;22;96212;-62
2023/07/14 06:16:31;;;;;;;;;11.50;11.50;;;;;24.27;100.00;99044.22;7630520;22;96639;-61
2023/07/14 06:19:34;;;;;;;;;13.60;12.00;;;;;24.47;100.00;99041.84;7632926;22;96449;-61
2023/07/14 06:22:37;;;;;;;;;9.60;9.00;;;;;24.57;100.00;99041.63;7659085;22;96318;-61
2023/07/14 06:25:43;;;;;;;;;11.25;10.00;;;;;24.80;100.00;99048.00;7630906;22;96478;-62
2023/07/14 06:28:46;;;;;;;;;12.00;11.00;;;;;24.92;100.00;99045.50;7657957;22;96247;-61
2023/07/14 06:31:50;;;;;;;;;12.00;11.00;;;;;25.02;100.00;99045.28;7622134;22;96214;-61
2023/07/14 06:34:56;;;;;;;;;12.50;11.50;;;;;25.18;100.00;99054.00;7595842;22;96632;-61
2023/07/14 06:37:59;;;;;;;;;10.40;10.00;;;;;25.30;100.00;99047.94;7631478;22;97068;-61
2023/07/14 06:41:07;;;;;;;;;12.00;11.80;;;;;25.35;100.00;99045.88;7632565;22;96220;-61
2023/07/14 06:44:10;;;;;;;;;12.00;12.00;;;;;25.45;100.00;99042.84;7629329;22;96991;-62
2023/07/14 06:47:27;;;;;;;;;10.00;10.00;;;;;25.61;100.00;99046.03;7651773;22;96963;-62
2023/07/14 06:50:30;;;;;;;;;10.00;9.00;;;;;25.62;100.00;99044.91;7657396;22;96717;-62
2023/07/14 06:57:13;;;;;;;;;12.00;12.00;;;;;25.78;100.00;99037.03;7680666;22;100081;-61
2023/07/14 07:00:16;;;;;;;;;12.60;10.60;;;;;26.02;100.00;99034.69;7705858;22;96915;-62
2023/07/14 07:03:20;;;;;;;;;12.00;11.00;;;;;26.21;100.00;99034.44;7733174;22;96341;-61
2023/07/14 07:06:24;;;;;;;;;11.25;11.25;;;;;26.42;100.00;99043.78;7733982;22;96329;-61
2023/07/14 07:09:28;;;;;;;;;11.00;10.40;;;;;26.52;100.00;99029.66;7733763;22;96696;-61
2023/07/14 07:12:33;;;;;;;;;13.00;12.00;;;;;26.65;100.00;99039.75;7734405;22;97290;-61
2023/07/14 07:15:36;;;;;;;;;10.00;10.00;;;;;26.84;100.00;99039.44;7741827;22;96702;-63
2023/07/14 07:18:40;;;;;;;;;9.00;8.50;;;;;26.99;100.00;99046.47;7744751;22;98530;-63
2023/07/14 07:21:43;;;;;;;;;13.00;10.60;;;;;26.94;100.00;99047.44;7745814;22;98912;-63
2023/07/14 07:24:46;;;;;;;;;8.00;7.40;;;;;27.07;100.00;99040.13;7770613;22;96257;-62
2023/07/14 07:27:50;;;;;;;;;6.40;6.40;;;;;27.24;100.00;99047.59;7744098;22;96900;-61
2023/07/14 07:30:54;;;;;;;;;8.00;8.00;;;;;27.29;100.00;99053.78;7771555;22;96281;-61
2023/07/14 07:33:57;;;;;;;;;5.40;5.00;;;;;27.39;100.00;99047.91;7766340;22;97479;-61
2023/07/14 07:37:00;;;;;;;;;7.60;7.00;;;;;27.52;100.00;99048.88;7769533;22;96520;-62
2023/07/14 07:40:04;;;;;;;;;8.00;7.80;;;;;27.53;100.00;99054.09;7771825;22;96309;-61
2023/07/14 07:43:09;;;;;;;;;9.00;8.00;;;;;27.72;100.00;99061.22;7771732;22;96636;-62
2023/07/14 07:46:13;;;;;;;;;7.00;7.00;;;;;27.70;100.00;99044.13;7771551;22;96358;-61
2023/07/14 07:49:17;;;;;;;;;9.00;9.00;;;;;27.91;100.00;99053.31;7742438;22;96630;-64
2023/07/14 07:52:20;;;;;;;;;10.00;10.00;;;;;28.12;100.00;99070.06;7771135;22;96304;-61
2023/07/14 07:55:23;;;;;;;;;7.00;6.00;;;;;28.20;100.00;99058.16;7744246;22;96923;-62
2023/07/14 07:58:29;;;;;;;;;9.00;8.00;;;;;28.52;100.00;99063.03;7771663;22;96338;-61
2023/07/14 08:01:32;;;;;;;;;6.00;6.00;;;;;28.60;100.00;99069.66;7772326;22;96280;-62
2023/07/14 08:04:36;;;;;;;;;7.00;6.00;;;;;28.77;100.00;99064.03;7742778;22;96643;-62
2023/07/14 08:07:39;;;;;;;;;7.00;7.00;;;;;29.01;100.00;99072.50;7770225;22;96278;-62
2023/07/14 08:10:45;;;;;;;;;5.00;5.00;;;;;29.17;100.00;99073.53;7745577;22;98411;-61
2023/07/14 08:13:49;;;;;;;;;6.00;6.00;;;;;29.36;100.00;99070.28;7742145;22;98360;-62
2023/07/14 08:16:53;;;;;;;;;6.20;5.00;;;;;29.51;100.00;99063.25;7772757;22;96386;-63
2023/07/14 08:19:56;;;;;;;;;7.40;7.00;;;;;29.63;100.00;99071.63;7746454;22;96255;-60
2023/07/14 08:23:02;;;;;;;;;9.40;9.00;;;;;29.71;100.00;99076.28;7743801;22;96780;-62
2023/07/14 08:26:06;;;;;;;;;7.00;7.00;;;;;29.87;100.00;99068.91;7743906;22;96308;-63
2023/07/14 08:29:11;;;;;;;;;8.00;8.00;;;;;30.03;100.00;99071.84;7719388;22;97289;-61
2023/07/14 08:32:15;;;;;;;;;7.00;7.00;;;;;30.21;100.00;99069.66;7743201;22;96351;-62
2023/07/14 08:35:20;;;;;;;;;5.00;5.00;;;;;30.48;100.00;99071.78;7771496;22;97671;-61
2023/07/14 08:38:23;;;;;;;;;7.00;7.00;;;;;30.76;100.00;99063.50;7746851;22;96203;-62
2023/07/14 08:41:29;;;;;;;;;7.00;6.00;;;;;31.12;100.00;99071.00;7773950;22;96302;-62
2023/07/14 08:44:46;;;;;;;;;6.60;6.60;;;;;31.17;98.76;99068.78;7772943;22;96252;-62
2023/07/14 08:48:00;;;;;;;;;5.00;5.00;;;;;31.27;99.27;99067.47;7746420;22;97143;-61
2023/07/14 08:51:15;;;;;;;;;7.00;7.00;;;;;31.32;100.00;99067.22;7772471;22;96688;-62
2023/07/14 08:54:24;;;;;;;;;5.40;4.00;;;;;31.67;93.36;99073.78;7773564;22;96737;-63
2023/07/14 08:57:28;;;;;;;;;5.00;5.00;;;;;32.01;91.63;99066.72;7772932;22;96722;-62
2023/07/14 09:00:37;;;;;;;;;5.00;5.00;;;;;32.38;87.71;99077.66;7773517;22;96221;-62
2023/07/14 09:03:44;;;;;;;;;7.00;6.40;;;;;32.61;85.18;99059.88;7772901;22;96211;-62
2023/07/14 09:06:49;;;;;;;;;6.00;5.00;;;;;32.70;81.53;99068.06;7773320;22;96259;-60
2023/07/14 09:09:52;;;;;;;;;5.00;5.00;;;;;32.85;83.28;99061.63;7747501;22;96495;-62
2023/07/14 09:13:06;;;;;;;;;5.00;5.00;;;;;33.19;79.58;99068.38;7746341;22;96236;-64
2023/07/14 09:16:15;;;;;;;;;5.50;4.00;;;;;33.37;73.33;99054.78;7746042;22;96627;-64
2023/07/14 09:19:33;;;;;;;;;6.00;5.40;;;;;33.51;72.62;99055.88;7773585;22;96446;-64
2023/07/14 09:22:45;;;;;;;;;6.00;6.00;;;;;33.61;70.50;99056.44;7773558;22;96782;-64
2023/07/14 09:25:56;;;;;;;;;7.00;7.00;;;;;33.51;81.87;99039.09;7745344;22;96666;-64
2023/07/14 09:29:09;;;;;;;;;6.60;6.60;;;;;33.52;74.84;99053.91;7762205;22;96904;-67
2023/07/14 09:32:23;;;;;;;;;6.00;6.00;;;;;33.31;67.97;99053.47;7709544;22;96849;-68
2023/07/14 09:35:28;;;;;;;;;7.60;6.60;;;;;33.53;66.33;99049.13;7737684;22;96334;-68
2023/07/14 09:38:42;;;;;;;;;6.00;5.60;;;;;33.82;68.13;99043.69;7736091;22;96282;-69
2023/07/14 09:41:46;;;;;;;;;4.00;3.60;;;;;34.07;64.31;99055.31;7707874;22;98895;-68
2023/07/14 09:44:51;;;;;;;;;4.60;4.60;;;;;34.28;62.66;99055.72;7708642;22;98998;-65
2023/07/14 09:48:01;;;;;;;;;5.60;5.60;;;;;34.33;62.17;99043.38;7706861;22;96714;-65
2023/07/14 11:05:36;;;;;;;;;7.00;7.00;;;;;34.71;45.44;99001.19;7721104;22;99699;-66
2023/07/14 11:08:40;;;;;;;;;7.00;7.00;;;;;34.76;46.46;99008.44;7668458;22;96190;-65
2023/07/14 11:11:51;;;;;;;;;7.00;7.00;;;;;34.73;43.07;99004.44;7696092;22;97472;-66
2023/07/14 11:15:14;;;;;;;;;7.40;7.40;;;;;34.82;47.29;99003.31;7670794;22;96502;-66
2023/07/14 11:18:31;;;;;;;;;7.00;7.00;;;;;35.04;43.68;99008.03;7709003;22;96310;-66
2023/07/14 11:21:45;;;;;;;;;6.75;5.75;;;;;35.21;43.35;99004.66;7736218;22;96209;-66
2023/07/14 11:25:02;;;;;;;;;6.00;6.00;;;;;35.23;40.52;98982.66;7736273;22;96357;-66
2023/07/14 11:28:17;;;;;;;;;4.50;4.50;;;;;35.43;38.94;98994.50;7733826;22;96998;-66
2023/07/14 11:31:24;;;;;;;;;7.25;6.75;;;;;35.14;37.53;98993.31;7735552;22;96067;-66
2023/07/14 11:34:34;;;;;;;;;6.00;6.00;;;;;34.82;36.91;98983.72;7737942;22;96220;-67
2023/07/14 11:37:47;;;;;;;;;4.00;4.00;;;;;34.90;34.82;98989.03;7736405;22;96380;-66
2023/07/14 11:40:53;;;;;;;;;6.60;6.60;;;;;35.03;36.62;98962.38;7709144;22;98708;-66
2023/07/14 11:43:58;;;;;;;;;7.00;6.00;;;;;35.35;39.40;98978.75;7737419;22;97538;-66
2023/07/14 11:47:01;;;;;;;;;5.80;5.00;;;;;35.58;43.12;98962.56;7736650;22;96937;-66
2023/07/14 11:50:23;;;;;;;;;7.00;6.00;;;;;35.47;36.48;98968.09;7708561;22;96804;-66
2023/07/14 11:54:04;;;;;;;;;4.00;4.00;;;;;35.45;41.68;98978.06;7737987;22;96306;-67
2023/07/14 11:57:16;;;;;;;;;7.00;7.00;;;;;35.45;42.93;98976.06;7710000;22;98285;-66
2023/07/14 12:00:23;;;;;;;;;7.25;7.25;;;;;35.70;44.62;98970.75;7738473;22;96509;-66
2023/07/14 12:03:30;;;;;;;;;6.00;6.00;;;;;35.93;41.42;98965.72;7711126;22;96461;-66
2023/07/14 12:06:46;;;;;;;;;7.67;7.00;;;;;35.45;33.25;98961.25;7735138;22;96467;-66
2023/07/14 12:10:10;;;;;;;;;8.00;7.00;;;;;35.05;37.17;98953.56;7708157;22;96516;-66
2023/07/14 12:13:26;;;;;;;;;5.60;5.60;;;;;34.96;36.62;98953.06;7707718;22;96499;-66
2023/07/14 12:16:46;;;;;;;;;10.00;9.00;;;;;35.14;40.04;98954.06;7736765;22;96628;-66
2023/07/14 12:19:55;;;;;;;;;6.25;6.25;;;;;35.43;42.59;98953.22;7737070;22;96364;-66
2023/07/14 12:23:24;;;;;;;;;6.00;6.00;;;;;35.64;43.60;98945.00;7737821;22;96489;-66
2023/07/14 12:26:36;;;;;;;;;6.00;6.00;;;;;35.84;39.04;98942.00;7735157;22;96288;-66
2023/07/14 12:29:40;;;;;;;;;7.20;6.80;;;;;35.84;37.22;98937.19;7709544;22;96596;-66
2023/07/14 12:33:03;;;;;;;;;4.00;4.00;;;;;35.65;38.50;98929.00;7736516;22;96391;-66
2023/07/14 12:36:15;;;;;;;;;6.25;6.25;;;;;35.39;37.34;98937.56;7736411;22;96414;-66
2023/07/14 12:39:18;;;;;;;;;5.00;5.00;;;;;35.12;38.47;98939.66;7684606;22;96606;-66
2023/07/14 12:42:23;;;;;;;;;5.00;5.00;;;;;34.96;38.01;98944.66;7735709;22;96450;-67
2023/07/14 12:45:26;;;;;;;;;6.00;6.00;;;;;34.76;40.13;98935.63;7708574;22;98787;-67
2023/07/14 12:48:32;;;;;;;;;6.00;5.20;;;;;34.78;37.91;98934.06;7737650;22;97462;-66
2023/07/14 12:51:37;;;;;;;;;6.00;6.00;;;;;34.31;37.34;98926.19;7710086;22;96257;-66
2023/07/14 12:54:43;;;;;;;;;4.20;4.20;;;;;34.24;38.39;98916.91;7737250;22;96369;-67
2023/07/14 12:57:49;;;;;;;;;9.00;8.00;;;;;34.12;38.60;98917.09;7710178;22;96640;-67
2023/07/14 13:00:56;;;;;;;;;4.00;4.00;;;;;33.75;39.79;98914.13;7735251;22;96349;-67
2023/07/14 13:04:02;;;;;;;;;5.00;5.00;;;;;33.57;40.02;98911.03;7736667;22;96166;-66
2023/07/14 13:07:11;;;;;;;;;6.00;6.00;;;;;33.50;42.59;98905.28;7735721;22;96479;-66
2023/07/14 13:10:19;;;;;;;;;6.00;5.00;;;;;33.78;42.23;98903.00;7709313;22;97306;-66
2023/07/14 13:13:28;;;;;;;;;4.60;4.60;;;;;34.18;40.53;98908.03;7710492;22;96669;-66
2023/07/14 13:16:35;;;;;;;;;4.20;4.00;;;;;34.43;37.13;98902.78;7709253;22;96619;-66
2023/07/14 13:19:41;;;;;;;;;4.00;4.00;;;;;34.74;42.73;98888.41;7737432;22;96304;-65
2023/07/14 13:22:44;;;;;;;;;4.00;4.00;;;;;35.00;36.16;98893.09;7707910;22;98507;-67
2023/07/14 13:25:55;;;;;;;;;4.25;4.25;;;;;35.11;37.98;98893.19;7736896;22;96853;-67
2023/07/14 13:29:02;;;;;;;;;4.00;4.00;;;;;35.35;38.50;98892.66;7709529;22;96496;-66
2023/07/14 13:32:17;;;;;;;;;5.00;4.00;;;;;35.59;35.53;98877.25;7707037;22;98282;-67
2023/07/14 13:35:24;;;;;;;;;3.00;3.00;;;;;35.76;33.29;98884.25;7709888;22;96753;-68
2023/07/14 13:38:28;;;;;;;;;5.40;5.00;;;;;35.60;33.08;98862.03;7684215;22;99111;-67
2023/07/14 13:41:32;;;;;;;;;4.00;4.00;;;;;35.75;34.35;98879.81;7709789;22;98344;-66
2023/07/14 13:44:38;;;;;;;;;5.00;5.00;;;;;35.77;35.77;98869.84;7737272;22;96471;-64
2023/07/14 13:47:45;;;;;;;;;5.00;5.00;;;;;35.86;32.49;98877.91;7707452;22;96601;-65
2023/07/14 13:50:48;;;;;;;;;4.80;4.80;;;;;35.79;30.14;98873.03;7736800;22;96820;-65
2023/07/14 13:53:52;;;;;;;;;5.00;5.00;;;;;35.66;32.28;98851.31;7736111;22;97348;-65
2023/07/14 13:56:55;;;;;;;;;4.40;4.00;;;;;35.70;30.14;98869.75;7737125;22;97282;-66
2023/07/14 14:00:00;;;;;;;;;5.00;3.50;;;;;35.41;29.94;98867.91;7736705;22;96583;-65
2023/07/14 14:03:11;;;;;;;;;6.75;6.00;;;;;35.03;30.56;98869.13;7709106;22;97001;-66
2023/07/14 14:06:15;;;;;;;;;3.60;3.60;;;;;34.83;30.56;98864.88;7733714;22;96693;-65
2023/07/14 14:09:20;;;;;;;;;5.00;5.00;;;;;34.57;31.40;98862.94;7733527;22;96611;-66
2023/07/14 14:12:23;;;;;;;;;5.00;5.00;;;;;34.31;30.70;98856.22;7709904;22;96403;-66
2023/07/14 14:15:31;;;;;;;;;4.00;4.00;;;;;34.10;31.48;98863.50;7708831;22;99037;-66
2023/07/14 14:18:35;;;;;;;;;5.40;5.00;;;;;34.02;33.88;98857.00;7736688;22;96239;-66
2023/07/14 14:21:38;;;;;;;;;3.20;3.20;;;;;33.90;30.89;98860.03;7708784;22;96627;-66
2023/07/14 14:24:41;;;;;;;;;4.00;4.00;;;;;33.78;30.85;98851.84;7735477;22;96416;-66
2023/07/14 14:27:45;;;;;;;;;3.40;3.40;;;;;33.70;29.38;98858.53;7708142;22;96932;-66
2023/07/14 14:30:52;;;;;;;;;3.00;3.00;;;;;33.56;31.22;98839.50;7707124;22;96654;-65
2023/07/14 14:33:56;;;;;;;;;4.40;3.00;;;;;33.44;32.89;98854.47;7707019;22;96829;-66
2023/07/14 14:36:59;;;;;;;;;5.00;5.00;;;;;33.44;31.41;98851.69;7708551;22;98348;-66
2023/07/14 14:40:02;;;;;;;;;5.00;5.00;;;;;33.46;31.52;98849.34;7707724;22;96702;-66
2023/07/14 14:43:14;;;;;;;;;5.50;5.00;;;;;33.56;31.99;98842.31;7707607;22;96652;-66
2023/07/14 14:46:19;;;;;;;;;3.40;3.00;;;;;33.43;30.84;98847.28;7707552;22;96629;-66
2023/07/14 14:49:23;;;;;;;;;6.40;6.40;;;;;33.03;32.11;98833.81;7734537;22;96367;-66
2023/07/14 14:52:27;;;;;;;;;5.00;5.00;;;;;33.05;34.74;98842.59;7735044;22;97116;-66
2023/07/14 14:55:31;;;;;;;;;3.00;3.00;;;;;33.15;34.70;98841.19;7734962;22;97578;-66
2023/07/14 14:58:35;;;;;;;;;3.00;3.00;;;;;33.07;32.43;98834.66;7733394;22;96319;-65
2023/07/14 15:01:42;;;;;;;;;4.00;3.60;;;;;33.17;34.81;98840.84;7706175;22;96191;-67
2023/07/14 15:04:46;;;;;;;;;5.00;5.00;;;;;33.15;36.15;98832.78;7707667;22;98350;-69
2023/07/14 15:07:50;;;;;;;;;4.00;4.00;;;;;33.24;34.92;98838.97;7707868;22;98432;-68
2023/07/14 15:10:55;;;;;;;;;4.40;4.00;;;;;33.03;32.42;98828.22;7734465;22;96484;-69
2023/07/14 15:14:02;;;;;;;;;3.00;3.00;;;;;33.01;34.17;98830.56;7735243;22;96268;-69
2023/07/14 15:17:24;;;;;;;;;2.80;2.80;;;;;32.90;33.32;98826.75;7706846;22;96605;-67
2023/07/14 15:20:28;;;;;;;;;5.00;5.00;;;;;32.86;34.88;98822.28;7736783;22;96401;-68
2023/07/14 15:23:31;;;;;;;;;6.75;5.75;;;;;32.81;37.88;98826.19;7736402;22;96211;-68
2023/07/14 15:26:41;;;;;;;;;6.00;6.00;;;;;32.89;39.36;98829.94;7736314;22;96341;-68
2023/07/14 15:29:44;;;;;;;;;5.00;5.00;;;;;32.99;37.58;98826.50;7734573;22;97191;-68
2023/07/14 15:32:49;;;;;;;;;7.80;7.80;;;;;33.04;38.51;98824.22;7733491;22;96210;-69
2023/07/14 15:35:53;;;;;;;;;9.75;9.00;;;;;33.14;40.32;98830.38;7733759;22;97062;-69
2023/07/14 15:39:00;;;;;;;;;3.00;3.00;;;;;33.06;35.15;98832.25;7706434;22;99964;-69
2023/07/14 15:42:12;;;;;;;;;3.00;3.00;;;;;32.75;34.95;98802.53;7706255;22;97492;-69
2023/07/14 15:45:17;;;;;;;;;4.00;4.00;;;;;32.88;35.62;98822.75;7732968;22;97109;-69
2023/07/14 15:48:25;;;;;;;;;4.00;3.00;;;;;32.92;35.91;98830.00;7707679;22;98718;-68
2023/07/14 15:51:45;;;;;;;;;5.25;5.00;;;;;32.97;38.12;98834.47;7706817;22;98310;-69
2023/07/14 15:54:49;;;;;;;;;4.00;4.00;;;;;33.05;37.49;98822.25;7706372;22;96616;-69
2023/07/14 15:57:54;;;;;;;;;4.00;4.00;;;;;33.16;39.03;98828.84;7733704;22;96403;-69
2023/07/14 16:00:59;;;;;;;;;3.40;3.00;;;;;33.21;37.89;98819.34;7735827;22;96771;-69
2023/07/14 16:04:20;;;;;;;;;4.67;4.67;;;;;33.21;37.67;98816.56;7708211;22;96980;-68
2023/07/14 16:07:24;;;;;;;;;6.00;4.50;;;;;33.27;40.24;98818.69;7669031;22;96873;-69
2023/07/14 16:10:28;;;;;;;;;5.00;4.50;;;;;33.19;37.54;98816.94;7696054;22;97773;-68
2023/07/14 16:13:31;;;;;;;;;5.00;3.50;;;;;33.01;36.62;98818.59;7697041;22;97286;-69
2023/07/14 16:16:35;;;;;;;;;4.60;4.00;;;;;32.82;37.03;98819.44;7698461;22;96126;-69
2023/07/14 16:19:39;;;;;;;;;6.00;6.00;;;;;32.75;39.57;98813.72;7671954;22;96986;-69
2023/07/14 16:22:47;;;;;;;;;3.00;3.00;;;;;32.67;39.28;98823.94;7647249;22;96940;-69
2023/07/14 16:25:51;;;;;;;;;8.00;6.40;;;;;32.59;39.71;98813.81;7647271;22;99241;-69
2023/07/14 16:28:55;;;;;;;;;5.00;5.00;;;;;32.48;38.02;98812.78;7699107;22;96220;-69
2023/07/14 16:31:59;;;;;;;;;5.00;4.00;;;;;32.42;38.33;98817.03;7698310;22;97012;-69
2023/07/14 16:35:04;;;;;;;;;6.00;5.00;;;;;32.32;44.51;98814.84;7671946;22;96610;-68
2023/07/14 16:38:18;;;;;;;;;7.00;6.00;;;;;32.22;42.09;98807.03;7700013;22;96723;-69
2023/07/14 16:41:21;;;;;;;;;5.00;5.00;;;;;32.20;42.02;98807.44;7699927;22;96330;-69
2023/07/14 16:44:25;;;;;;;;;5.80;5.20;;;;;32.19;39.88;98802.22;7646334;22;97727;-69
2023/07/14 16:47:28;;;;;;;;;5.00;4.50;;;;;32.18;39.10;98795.00;7699989;22;96200;-69
2023/07/14 16:50:33;;;;;;;;;6.25;6.25;;;;;32.24;44.96;98794.38;7672888;22;96444;-69
2023/07/14 16:53:40;;;;;;;;;4.20;4.00;;;;;32.25;42.14;98807.13;7699486;22;96315;-69
2023/07/14 16:56:43;;;;;;;;;5.00;5.00;;;;;32.00;44.75;98802.19;7699650;22;96226;-69
2023/07/14 16:59:47;;;;;;;;;5.00;4.00;;;;;31.80;42.70;98802.16;7671724;22;98682;-69
2023/07/14 17:02:50;;;;;;;;;4.60;4.60;;;;;31.69;44.45;98805.84;7671934;22;96489;-69
2023/07/14 17:05:58;;;;;;;;;4.00;4.00;;;;;31.60;43.97;98796.88;7718554;22;96255;-69
2023/07/14 17:09:01;;;;;;;;;5.00;4.60;;;;;31.46;44.18;98804.88;7738046;22;96779;-69
2023/07/14 17:12:05;;;;;;;;;4.00;4.00;;;;;31.25;45.73;98789.28;7738029;22;96414;-69
2023/07/14 17:15:11;;;;;;;;;5.00;5.00;;;;;31.14;47.37;98790.16;7737892;22;96564;-69
2023/07/14 17:18:17;;;;;;;;;5.50;5.50;;;;;31.10;49.42;98798.44;7709394;22;99410;-68
2023/07/14 17:21:22;;;;;;;;;4.00;4.00;;;;;30.98;49.61;98801.28;7709636;22;96871;-69
2023/07/14 17:24:27;;;;;;;;;7.00;6.00;;;;;30.86;60.48;98796.59;7737338;22;96169;-69
2023/07/14 17:27:30;;;;;;;;;5.60;5.60;;;;;30.79;62.94;98801.97;7737170;22;96821;-68
2023/07/14 17:30:34;;;;;;;;;4.40;4.00;;;;;30.62;68.18;98791.19;7737923;22;96252;-68
2023/07/14 17:33:37;;;;;;;;;7.00;7.00;;;;;30.57;70.77;98796.19;7736516;22;96728;-69
2023/07/14 17:36:43;;;;;;;;;7.00;6.33;;;;;30.45;63.94;98794.25;7710176;22;98885;-68
2023/07/14 17:39:47;;;;;;;;;6.00;6.00;;;;;30.41;66.67;98802.50;7738210;22;96305;-69
2023/07/14 17:42:50;;;;;;;;;6.00;6.00;;;;;30.31;66.49;98799.41;7709531;22;97594;-69
2023/07/14 17:45:54;;;;;;;;;8.00;7.00;;;;;30.26;70.43;98802.44;7709532;22;96343;-68
2023/07/14 17:48:58;;;;;;;;;8.00;8.00;;;;;30.20;71.47;98801.91;7709991;22;96524;-69
2023/07/14 17:52:04;;;;;;;;;7.00;7.00;;;;;30.00;70.59;98798.16;7707412;22;96728;-68
2023/07/14 17:55:17;;;;;;;;;7.00;7.00;;;;;29.78;74.13;98800.59;7710620;22;96429;-68
2023/07/14 17:58:25;;;;;;;;;7.00;6.00;;;;;29.48;73.92;98797.25;7710397;22;97403;-68
2023/07/14 18:01:28;;;;;;;;;8.00;7.00;;;;;29.31;74.76;98798.34;7710156;22;97587;-69
2023/07/14 18:04:31;;;;;;;;;8.00;7.00;;;;;29.32;75.57;98797.19;7706578;22;98745;-68
2023/07/14 18:07:36;;;;;;;;;7.00;6.00;;;;;29.18;77.96;98804.97;7734411;22;96284;-68
2023/07/14 18:10:40;;;;;;;;;8.00;7.00;;;;;29.15;78.24;98809.28;7736755;22;96769;-68
2023/07/14 18:13:44;;;;;;;;;8.00;8.00;;;;;29.05;81.33;98803.38;7736964;22;96299;-68
2023/07/14 18:16:47;;;;;;;;;7.50;7.50;;;;;28.91;82.56;98803.69;7737233;22;96277;-68
2023/07/14 18:19:52;;;;;;;;;9.00;8.60;;;;;28.86;83.85;98809.47;7735887;22;96324;-68
2023/07/14 18:22:58;;;;;;;;;5.00;5.00;;;;;28.75;86.70;98808.28;7737507;22;96247;-68
2023/07/14 18:26:02;;;;;;;;;7.60;7.60;;;;;28.64;85.88;98802.31;7709450;22;96874;-68
2023/07/14 18:29:13;;;;;;;;;7.00;6.00;;;;;28.67;88.51;98814.72;7683830;22;97065;-67
2023/07/14 18:32:17;;;;;;;;;8.80;8.00;;;;;28.61;91.78;98813.31;7734616;22;96561;-68
2023/07/14 18:35:26;;;;;;;;;9.60;8.60;;;;;28.57;91.54;98818.72;7735622;22;98097;-68
2023/07/14 18:38:30;;;;;;;;;8.40;7.80;;;;;28.48;92.69;98815.22;7736436;22;96244;-68
2023/07/14 18:41:34;;;;;;;;;6.00;6.00;;;;;28.40;91.35;98816.09;7737512;22;96268;-68
2023/07/14 18:44:37;;;;;;;;;8.00;7.20;;;;;28.35;91.71;98816.31;7737376;22;96268;-68
2023/07/14 18:47:41;;;;;;;;;10.00;9.00;;;;;28.23;98.15;98819.06;7735619;22;96471;-68
2023/07/14 18:50:45;;;;;;;;;9.00;8.00;;;;;28.15;96.65;98822.72;7737931;22;96307;-68
2023/07/14 18:53:53;;;;;;;;;10.00;9.00;;;;;28.06;100.00;98828.28;7735580;22;96263;-68
2023/07/14 18:56:59;;;;;;;;;10.25;9.00;;;;;27.96;100.00;98823.94;7737336;22;96430;-68
2023/07/14 19:00:08;;;;;;;;;9.80;9.60;;;;;27.87;100.00;98830.72;7737225;22;96257;-68
2023/07/14 19:03:16;;;;;;;;;12.00;10.00;;;;;27.79;100.00;98821.31;7709926;22;96375;-67
2023/07/14 19:06:24;;;;;;;;;11.80;11.00;;;;;27.74;100.00;98823.47;7707963;22;96628;-68
2023/07/14 19:09:29;;;;;;;;;10.80;10.80;;;;;27.66;100.00;98827.13;7736878;22;96844;-68
2023/07/14 19:12:33;;;;;;;;;10.00;9.50;;;;;27.57;100.00;98832.69;7736801;22;96234;-68
2023/07/14 19:15:37;;;;;;;;;11.00;11.00;;;;;27.45;100.00;98833.41;7683571;22;98521;-67
2023/07/14 19:18:40;;;;;;;;;10.00;9.00;;;;;27.12;100.00;98824.91;7709559;22;96384;-68
2023/07/14 19:21:44;;;;;;;;;10.50;10.50;;;;;27.01;100.00;98839.44;7708239;22;98480;-68
2023/07/14 19:24:50;;;;;;;;;11.00;11.00;;;;;26.77;100.00;98837.22;7736418;22;96509;-67
2023/07/14 19:27:53;;;;;;;;;10.00;10.00;;;;;26.58;100.00;98823.75;7707709;22;98533;-67
2023/07/14 19:30:58;;;;;;;;;10.00;10.00;;;;;26.59;100.00;98816.25;7736681;22;96379;-68
2023/07/14 19:34:17;;;;;;;;;8.00;8.00;;;;;26.67;100.00;98827.31;7708650;22;98935;-68
2023/07/14 19:37:21;;;;;;;;;9.00;9.00;;;;;26.66;100.00;98824.88;7708838;22;96740;-68
2023/07/14 19:40:27;;;;;;;;;7.20;7.00;;;;;26.57;100.00;98821.31;7735222;22;96859;-68
2023/07/14 19:43:30;;;;;;;;;10.60;10.60;;;;;26.40;100.00;98821.31;7735345;22;96551;-67
2023/07/14 19:46:34;;;;;;;;;10.00;9.40;;;;;26.39;100.00;98823.25;7707650;22;96685;-67
2023/07/14 19:49:37;;;;;;;;;12.00;11.00;;;;;26.31;100.00;98815.81;7708434;22;98408;-67
2023/07/14 19:52:40;;;;;;;;;10.60;10.40;;;;;26.27;100.00;98825.91;7733743;22;96548;-67
2023/07/14 19:55:46;;;;;;;;;12.00;10.80;;;;;26.16;100.00;98821.78;7736582;22;96455;-67
2023/07/14 19:58:49;;;;;;;;;10.00;10.00;;;;;26.13;100.00;98819.69;7709929;22;96569;-67
2023/07/14 20:01:53;;;;;;;;;9.25;9.25;;;;;26.03;100.00;98815.31;7736430;22;96269;-68
2023/07/14 20:04:57;;;;;;;;;9.00;8.00;;;;;25.92;100.00;98816.75;7733265;22;96420;-67
2023/07/14 20:08:00;;;;;;;;;11.00;10.00;;;;;25.90;100.00;98818.22;7737389;22;96304;-67
2023/07/14 20:11:05;;;;;;;;;13.00;12.00;;;;;25.80;100.00;98820.13;7737506;22;96230;-67
2023/07/14 20:14:26;;;;;;;;;9.00;8.00;;;;;25.74;100.00;98823.41;7737359;22;96383;-67
2023/07/14 20:17:29;;;;;;;;;11.00;10.00;;;;;25.76;100.00;98827.44;7737721;22;96388;-67
2023/07/14 20:20:33;;;;;;;;;11.00;10.00;;;;;25.77;100.00;98822.75;7737776;22;96356;-67